sensor_id;sensor_type;location;lat;lon;timestamp;P1;durP1;ratioP1;P2;durP2;ratioP2
76903;SDS011;65865;51.698;-0.292;2023-07-29T00:00:21;0.40;;;0.22;;
76903;SDS011;65865;51.698;-0.292;2023-07-29T00:02:48;1.38;;;0.20;;
76903;SDS011;65865;51.698;-0.292;2023-07-29T00:05:14;2.00;;;0.30;;
76903;SDS011;65865;51.698;-0.292;2023-07-29T00:07:39;0.20;;;0.10;;
76903;SDS011;65865;51.698;-0.292;2023-07-29T00:10:06;1.05;;;0.10;;
76903;SDS011;65865;51.698;-0.292;2023-07-29T00:12:32;1.33;;;0.20;;
76903;SDS011;65865;51.698;-0.292;2023-07-29T00:14:58;0.43;;;0.20;;
76903;SDS011;65865;51.698;-0.292;2023-07-29T00:17:24;0.88;;;0.20;;
76903;SDS011;65865;51.698;-0.292;2023-07-29T00:19:50;0.32;;;0.20;;
76903;SDS011;65865;51.698;-0.292;2023-07-29T00:22:16;1.88;;;0.20;;
76903;SDS011;65865;51.698;-0.292;2023-07-29T00:24:42;0.55;;;0.20;;
76903;SDS011;65865;51.698;-0.292;2023-07-29T00:27:08;0.45;;;0.20;;
76903;SDS011;65865;51.698;-0.292;2023-07-29T00:29:34;0.47;;;0.30;;
76903;SDS011;65865;51.698;-0.292;2023-07-29T00:32:00;1.58;;;0.20;;
76903;SDS011;65865;51.698;-0.292;2023-07-29T00:34:26;1.13;;;0.28;;
76903;SDS011;65865;51.698;-0.292;2023-07-29T00:36:52;0.82;;;0.20;;
76903;SDS011;65865;51.698;-0.292;2023-07-29T00:39:18;1.27;;;0.30;;
76903;SDS011;65865;51.698;-0.292;2023-07-29T00:41:44;0.45;;;0.17;;
76903;SDS011;65865;51.698;-0.292;2023-07-29T00:44:10;0.40;;;0.20;;
76903;SDS011;65865;51.698;-0.292;2023-07-29T00:46:36;1.40;;;0.20;;
76903;SDS011;65865;51.698;-0.292;2023-07-29T00:49:04;0.80;;;0.20;;
76903;SDS011;65865;51.698;-0.292;2023-07-29T00:51:30;0.95;;;0.20;;
76903;SDS011;65865;51.698;-0.292;2023-07-29T00:53:56;0.75;;;0.20;;
76903;SDS011;65865;51.698;-0.292;2023-07-29T00:56:22;0.40;;;0.32;;
76903;SDS011;65865;51.698;-0.292;2023-07-29T00:58:48;0.70;;;0.30;;
76903;SDS011;65865;51.698;-0.292;2023-07-29T01:01:14;0.77;;;0.30;;
76903;SDS011;65865;51.698;-0.292;2023-07-29T01:03:40;0.52;;;0.10;;
76903;SDS011;65865;51.698;-0.292;2023-07-29T01:06:15;1.25;;;0.43;;
76903;SDS011;65865;51.698;-0.292;2023-07-29T01:14:02;0.60;;;0.20;;
76903;SDS011;65865;51.698;-0.292;2023-07-29T01:16:30;0.68;;;0.15;;
76903;SDS011;65865;51.698;-0.292;2023-07-29T01:18:57;1.55;;;0.20;;
76903;SDS011;65865;51.698;-0.292;2023-07-29T01:21:26;0.40;;;0.13;;
76903;SDS011;65865;51.698;-0.292;2023-07-29T01:23:53;0.50;;;0.20;;
76903;SDS011;65865;51.698;-0.292;2023-07-29T01:26:19;1.00;;;0.20;;
76903;SDS011;65865;51.698;-0.292;2023-07-29T01:28:45;0.82;;;0.25;;
76903;SDS011;65865;51.698;-0.292;2023-07-29T01:31:23;0.63;;;0.35;;
76903;SDS011;65865;51.698;-0.292;2023-07-29T01:33:53;0.63;;;0.10;;
76903;SDS011;65865;51.698;-0.292;2023-07-29T01:36:22;1.17;;;0.30;;
76903;SDS011;65865;51.698;-0.292;2023-07-29T01:44:42;0.73;;;0.30;;
76903;SDS011;65865;51.698;-0.292;2023-07-29T01:47:08;0.55;;;0.20;;
76903;SDS011;65865;51.698;-0.292;2023-07-29T01:49:34;0.50;;;0.20;;
76903;SDS011;65865;51.698;-0.292;2023-07-29T01:52:00;1.38;;;0.20;;
76903;SDS011;65865;51.698;-0.292;2023-07-29T01:54:26;0.88;;;0.20;;
76903;SDS011;65865;51.698;-0.292;2023-07-29T01:56:52;1.27;;;0.22;;
76903;SDS011;65865;51.698;-0.292;2023-07-29T01:59:18;1.30;;;0.30;;
76903;SDS011;65865;51.698;-0.292;2023-07-29T02:01:44;0.80;;;0.30;;
76903;SDS011;65865;51.698;-0.292;2023-07-29T02:04:11;0.70;;;0.22;;
76903;SDS011;65865;51.698;-0.292;2023-07-29T02:06:37;0.80;;;0.30;;
76903;SDS011;65865;51.698;-0.292;2023-07-29T02:09:03;0.50;;;0.20;;
76903;SDS011;65865;51.698;-0.292;2023-07-29T02:11:29;0.70;;;0.30;;
76903;SDS011;65865;51.698;-0.292;2023-07-29T02:13:56;1.45;;;0.38;;
76903;SDS011;65865;51.698;-0.292;2023-07-29T02:16:22;0.95;;;0.20;;
76903;SDS011;65865;51.698;-0.292;2023-07-29T02:18:48;0.70;;;0.30;;
76903;SDS011;65865;51.698;-0.292;2023-07-29T02:21:15;0.75;;;0.20;;
76903;SDS011;65865;51.698;-0.292;2023-07-29T02:23:41;1.00;;;0.30;;
76903;SDS011;65865;51.698;-0.292;2023-07-29T02:26:07;0.30;;;0.17;;
76903;SDS011;65865;51.698;-0.292;2023-07-29T02:28:33;0.73;;;0.30;;
76903;SDS011;65865;51.698;-0.292;2023-07-29T02:33:54;1.60;;;0.22;;
76903;SDS011;65865;51.698;-0.292;2023-07-29T02:36:20;0.60;;;0.22;;
76903;SDS011;65865;51.698;-0.292;2023-07-29T02:38:46;0.45;;;0.22;;
76903;SDS011;65865;51.698;-0.292;2023-07-29T02:41:12;1.63;;;0.35;;
76903;SDS011;65865;51.698;-0.292;2023-07-29T02:43:41;0.52;;;0.22;;
76903;SDS011;65865;51.698;-0.292;2023-07-29T02:46:07;1.35;;;0.30;;
76903;SDS011;65865;51.698;-0.292;2023-07-29T02:48:33;1.85;;;0.30;;
76903;SDS011;65865;51.698;-0.292;2023-07-29T02:50:59;0.60;;;0.20;;
76903;SDS011;65865;51.698;-0.292;2023-07-29T02:53:25;1.42;;;0.20;;
76903;SDS011;65865;51.698;-0.292;2023-07-29T02:55:51;0.90;;;0.20;;
76903;SDS011;65865;51.698;-0.292;2023-07-29T02:58:17;1.25;;;0.40;;
76903;SDS011;65865;51.698;-0.292;2023-07-29T03:00:43;1.10;;;0.30;;
76903;SDS011;65865;51.698;-0.292;2023-07-29T03:03:09;1.35;;;0.40;;
76903;SDS011;65865;51.698;-0.292;2023-07-29T03:05:35;0.75;;;0.30;;
76903;SDS011;65865;51.698;-0.292;2023-07-29T03:08:03;1.30;;;0.30;;
76903;SDS011;65865;51.698;-0.292;2023-07-29T03:10:29;1.98;;;0.47;;
76903;SDS011;65865;51.698;-0.292;2023-07-29T03:12:55;1.95;;;0.30;;
76903;SDS011;65865;51.698;-0.292;2023-07-29T03:15:24;1.52;;;0.30;;
76903;SDS011;65865;51.698;-0.292;2023-07-29T03:17:51;1.08;;;0.47;;
76903;SDS011;65865;51.698;-0.292;2023-07-29T03:20:17;1.30;;;0.43;;
76903;SDS011;65865;51.698;-0.292;2023-07-29T03:22:46;0.98;;;0.38;;
76903;SDS011;65865;51.698;-0.292;2023-07-29T03:25:13;1.13;;;0.30;;
76903;SDS011;65865;51.698;-0.292;2023-07-29T03:27:39;1.05;;;0.30;;
76903;SDS011;65865;51.698;-0.292;2023-07-29T03:30:05;1.33;;;0.47;;
76903;SDS011;65865;51.698;-0.292;2023-07-29T03:32:32;0.73;;;0.30;;
76903;SDS011;65865;51.698;-0.292;2023-07-29T03:34:58;1.60;;;0.30;;
76903;SDS011;65865;51.698;-0.292;2023-07-29T03:37:24;0.77;;;0.35;;
76903;SDS011;65865;51.698;-0.292;2023-07-29T03:39:50;1.23;;;0.30;;
76903;SDS011;65865;51.698;-0.292;2023-07-29T03:42:17;1.58;;;0.35;;
76903;SDS011;65865;51.698;-0.292;2023-07-29T03:44:43;1.20;;;0.30;;
76903;SDS011;65865;51.698;-0.292;2023-07-29T03:47:09;1.02;;;0.30;;
76903;SDS011;65865;51.698;-0.292;2023-07-29T03:49:35;1.50;;;0.40;;
76903;SDS011;65865;51.698;-0.292;2023-07-29T03:52:01;0.60;;;0.20;;
76903;SDS011;65865;51.698;-0.292;2023-07-29T03:54:27;1.45;;;0.30;;
76903;SDS011;65865;51.698;-0.292;2023-07-29T03:56:53;1.23;;;0.20;;
76903;SDS011;65865;51.698;-0.292;2023-07-29T03:59:19;1.85;;;0.28;;
76903;SDS011;65865;51.698;-0.292;2023-07-29T04:01:47;1.10;;;0.20;;
76903;SDS011;65865;51.698;-0.292;2023-07-29T04:04:13;1.17;;;0.40;;
76903;SDS011;65865;51.698;-0.292;2023-07-29T04:06:39;0.73;;;0.20;;
76903;SDS011;65865;51.698;-0.292;2023-07-29T04:09:05;1.00;;;0.32;;
76903;SDS011;65865;51.698;-0.292;2023-07-29T04:11:32;0.73;;;0.30;;
76903;SDS011;65865;51.698;-0.292;2023-07-29T04:13:59;1.63;;;0.30;;
76903;SDS011;65865;51.698;-0.292;2023-07-29T04:16:25;1.58;;;0.47;;
76903;SDS011;65865;51.698;-0.292;2023-07-29T04:18:51;2.17;;;0.50;;
76903;SDS011;65865;51.698;-0.292;2023-07-29T04:21:17;1.65;;;0.38;;
76903;SDS011;65865;51.698;-0.292;2023-07-29T04:23:43;2.08;;;0.40;;
76903;SDS011;65865;51.698;-0.292;2023-07-29T04:26:09;1.13;;;0.30;;
76903;SDS011;65865;51.698;-0.292;2023-07-29T04:28:35;0.70;;;0.30;;
76903;SDS011;65865;51.698;-0.292;2023-07-29T04:31:01;2.22;;;0.55;;
76903;SDS011;65865;51.698;-0.292;2023-07-29T04:33:29;1.92;;;0.30;;
76903;SDS011;65865;51.698;-0.292;2023-07-29T04:35:55;1.25;;;0.40;;
76903;SDS011;65865;51.698;-0.292;2023-07-29T04:38:21;0.82;;;0.30;;
76903;SDS011;65865;51.698;-0.292;2023-07-29T04:40:50;1.02;;;0.38;;
76903;SDS011;65865;51.698;-0.292;2023-07-29T04:43:16;0.90;;;0.40;;
76903;SDS011;65865;51.698;-0.292;2023-07-29T04:45:43;1.00;;;0.30;;
76903;SDS011;65865;51.698;-0.292;2023-07-29T04:48:09;1.02;;;0.30;;
76903;SDS011;65865;51.698;-0.292;2023-07-29T04:50:35;1.60;;;0.43;;
76903;SDS011;65865;51.698;-0.292;2023-07-29T04:53:01;0.90;;;0.30;;
76903;SDS011;65865;51.698;-0.292;2023-07-29T04:55:26;1.50;;;0.40;;
76903;SDS011;65865;51.698;-0.292;2023-07-29T04:57:53;1.10;;;0.40;;
76903;SDS011;65865;51.698;-0.292;2023-07-29T05:00:19;1.05;;;0.30;;
76903;SDS011;65865;51.698;-0.292;2023-07-29T05:02:45;1.23;;;0.38;;
76903;SDS011;65865;51.698;-0.292;2023-07-29T05:05:11;1.00;;;0.40;;
76903;SDS011;65865;51.698;-0.292;2023-07-29T05:07:37;1.48;;;0.35;;
76903;SDS011;65865;51.698;-0.292;2023-07-29T05:10:03;1.42;;;0.50;;
76903;SDS011;65865;51.698;-0.292;2023-07-29T05:12:29;1.30;;;0.40;;
76903;SDS011;65865;51.698;-0.292;2023-07-29T05:14:56;1.13;;;0.40;;
76903;SDS011;65865;51.698;-0.292;2023-07-29T05:17:22;2.03;;;0.50;;
76903;SDS011;65865;51.698;-0.292;2023-07-29T05:19:48;2.13;;;0.50;;
76903;SDS011;65865;51.698;-0.292;2023-07-29T05:22:14;2.38;;;0.50;;
76903;SDS011;65865;51.698;-0.292;2023-07-29T05:24:40;2.33;;;0.40;;
76903;SDS011;65865;51.698;-0.292;2023-07-29T05:27:06;1.17;;;0.40;;
76903;SDS011;65865;51.698;-0.292;2023-07-29T05:29:33;1.17;;;0.43;;
76903;SDS011;65865;51.698;-0.292;2023-07-29T05:31:59;1.85;;;0.40;;
76903;SDS011;65865;51.698;-0.292;2023-07-29T05:34:26;1.27;;;0.45;;
76903;SDS011;65865;51.698;-0.292;2023-07-29T05:36:52;1.35;;;0.40;;
76903;SDS011;65865;51.698;-0.292;2023-07-29T05:39:18;1.48;;;0.32;;
76903;SDS011;65865;51.698;-0.292;2023-07-29T05:41:44;1.98;;;0.45;;
76903;SDS011;65865;51.698;-0.292;2023-07-29T05:44:11;1.13;;;0.30;;
76903;SDS011;65865;51.698;-0.292;2023-07-29T05:46:37;1.83;;;0.57;;
76903;SDS011;65865;51.698;-0.292;2023-07-29T05:49:03;1.10;;;0.35;;
76903;SDS011;65865;51.698;-0.292;2023-07-29T05:51:29;1.45;;;0.40;;
76903;SDS011;65865;51.698;-0.292;2023-07-29T05:53:55;0.85;;;0.32;;
76903;SDS011;65865;51.698;-0.292;2023-07-29T05:56:21;0.93;;;0.30;;
76903;SDS011;65865;51.698;-0.292;2023-07-29T05:58:47;1.50;;;0.50;;
76903;SDS011;65865;51.698;-0.292;2023-07-29T06:01:13;1.70;;;0.45;;
76903;SDS011;65865;51.698;-0.292;2023-07-29T06:03:39;1.75;;;0.40;;
76903;SDS011;65865;51.698;-0.292;2023-07-29T06:06:05;1.85;;;0.68;;
76903;SDS011;65865;51.698;-0.292;2023-07-29T06:08:31;1.85;;;0.75;;
76903;SDS011;65865;51.698;-0.292;2023-07-29T06:10:59;0.93;;;0.40;;
76903;SDS011;65865;51.698;-0.292;2023-07-29T06:13:25;1.65;;;0.50;;
76903;SDS011;65865;51.698;-0.292;2023-07-29T06:15:51;1.08;;;0.50;;
76903;SDS011;65865;51.698;-0.292;2023-07-29T06:18:17;1.02;;;0.40;;
76903;SDS011;65865;51.698;-0.292;2023-07-29T06:20:43;1.25;;;0.40;;
76903;SDS011;65865;51.698;-0.292;2023-07-29T06:23:09;1.10;;;0.30;;
76903;SDS011;65865;51.698;-0.292;2023-07-29T06:25:35;1.73;;;0.40;;
76903;SDS011;65865;51.698;-0.292;2023-07-29T06:28:01;1.63;;;0.40;;
76903;SDS011;65865;51.698;-0.292;2023-07-29T06:30:27;1.60;;;0.40;;
76903;SDS011;65865;51.698;-0.292;2023-07-29T06:32:53;1.20;;;0.45;;
76903;SDS011;65865;51.698;-0.292;2023-07-29T06:35:19;2.20;;;0.50;;
76903;SDS011;65865;51.698;-0.292;2023-07-29T06:37:45;1.20;;;0.35;;
76903;SDS011;65865;51.698;-0.292;2023-07-29T06:40:11;1.42;;;0.40;;
76903;SDS011;65865;51.698;-0.292;2023-07-29T06:42:37;1.80;;;0.40;;
76903;SDS011;65865;51.698;-0.292;2023-07-29T06:45:04;1.65;;;0.50;;
76903;SDS011;65865;51.698;-0.292;2023-07-29T06:49:57;1.40;;;0.47;;
76903;SDS011;65865;51.698;-0.292;2023-07-29T06:52:23;1.48;;;0.40;;
76903;SDS011;65865;51.698;-0.292;2023-07-29T06:54:49;0.98;;;0.40;;
76903;SDS011;65865;51.698;-0.292;2023-07-29T06:57:15;1.23;;;0.40;;
76903;SDS011;65865;51.698;-0.292;2023-07-29T06:59:41;2.10;;;0.47;;
76903;SDS011;65865;51.698;-0.292;2023-07-29T07:02:07;1.83;;;0.40;;
76903;SDS011;65865;51.698;-0.292;2023-07-29T07:04:33;1.13;;;0.80;;
76903;SDS011;65865;51.698;-0.292;2023-07-29T07:06:59;1.50;;;0.52;;
76903;SDS011;65865;51.698;-0.292;2023-07-29T07:09:25;2.10;;;0.60;;
76903;SDS011;65865;51.698;-0.292;2023-07-29T07:11:51;1.83;;;0.40;;
76903;SDS011;65865;51.698;-0.292;2023-07-29T07:14:17;2.25;;;0.50;;
76903;SDS011;65865;51.698;-0.292;2023-07-29T07:16:43;1.50;;;0.40;;
76903;SDS011;65865;51.698;-0.292;2023-07-29T07:19:10;1.75;;;0.65;;
76903;SDS011;65865;51.698;-0.292;2023-07-29T07:21:36;2.17;;;0.55;;
76903;SDS011;65865;51.698;-0.292;2023-07-29T07:24:02;1.60;;;0.82;;
76903;SDS011;65865;51.698;-0.292;2023-07-29T07:26:28;2.17;;;0.40;;
76903;SDS011;65865;51.698;-0.292;2023-07-29T07:28:54;1.50;;;0.55;;
76903;SDS011;65865;51.698;-0.292;2023-07-29T07:31:20;1.70;;;0.40;;
76903;SDS011;65865;51.698;-0.292;2023-07-29T07:33:46;1.70;;;0.35;;
76903;SDS011;65865;51.698;-0.292;2023-07-29T07:36:12;0.93;;;0.50;;
76903;SDS011;65865;51.698;-0.292;2023-07-29T07:38:38;2.83;;;0.50;;
76903;SDS011;65865;51.698;-0.292;2023-07-29T07:41:04;1.60;;;0.40;;
76903;SDS011;65865;51.698;-0.292;2023-07-29T07:43:30;2.13;;;0.52;;
76903;SDS011;65865;51.698;-0.292;2023-07-29T07:46:00;1.52;;;0.40;;
76903;SDS011;65865;51.698;-0.292;2023-07-29T07:48:27;2.28;;;0.60;;
76903;SDS011;65865;51.698;-0.292;2023-07-29T07:50:53;1.88;;;0.63;;
76903;SDS011;65865;51.698;-0.292;2023-07-29T07:53:19;2.13;;;0.70;;
76903;SDS011;65865;51.698;-0.292;2023-07-29T07:55:45;1.48;;;0.50;;
76903;SDS011;65865;51.698;-0.292;2023-07-29T07:58:11;2.83;;;0.90;;
76903;SDS011;65865;51.698;-0.292;2023-07-29T08:00:38;3.33;;;0.55;;
76903;SDS011;65865;51.698;-0.292;2023-07-29T08:03:05;2.78;;;0.73;;
76903;SDS011;65865;51.698;-0.292;2023-07-29T08:05:31;2.35;;;0.73;;
76903;SDS011;65865;51.698;-0.292;2023-07-29T08:07:57;3.28;;;0.63;;
76903;SDS011;65865;51.698;-0.292;2023-07-29T08:10:23;3.70;;;0.90;;
76903;SDS011;65865;51.698;-0.292;2023-07-29T08:12:49;3.15;;;0.90;;
76903;SDS011;65865;51.698;-0.292;2023-07-29T08:15:15;2.50;;;0.82;;
76903;SDS011;65865;51.698;-0.292;2023-07-29T08:17:41;3.35;;;1.10;;
76903;SDS011;65865;51.698;-0.292;2023-07-29T08:20:07;3.70;;;1.15;;
76903;SDS011;65865;51.698;-0.292;2023-07-29T08:22:34;3.83;;;1.05;;
76903;SDS011;65865;51.698;-0.292;2023-07-29T08:25:00;4.90;;;1.17;;
76903;SDS011;65865;51.698;-0.292;2023-07-29T08:27:26;3.05;;;0.95;;
76903;SDS011;65865;51.698;-0.292;2023-07-29T08:29:53;3.17;;;0.95;;
76903;SDS011;65865;51.698;-0.292;2023-07-29T08:32:19;4.32;;;1.00;;
76903;SDS011;65865;51.698;-0.292;2023-07-29T08:34:45;5.35;;;0.95;;
76903;SDS011;65865;51.698;-0.292;2023-07-29T08:37:11;3.20;;;0.98;;
76903;SDS011;65865;51.698;-0.292;2023-07-29T08:39:38;2.95;;;0.98;;
76903;SDS011;65865;51.698;-0.292;2023-07-29T08:42:04;3.10;;;0.85;;
76903;SDS011;65865;51.698;-0.292;2023-07-29T08:44:43;3.13;;;1.00;;
76903;SDS011;65865;51.698;-0.292;2023-07-29T08:47:09;2.03;;;0.80;;
76903;SDS011;65865;51.698;-0.292;2023-07-29T08:49:37;2.75;;;1.05;;
76903;SDS011;65865;51.698;-0.292;2023-07-29T08:52:03;3.53;;;0.90;;
76903;SDS011;65865;51.698;-0.292;2023-07-29T08:54:30;2.88;;;0.80;;
76903;SDS011;65865;51.698;-0.292;2023-07-29T08:56:56;1.98;;;0.90;;
76903;SDS011;65865;51.698;-0.292;2023-07-29T08:59:22;4.07;;;1.10;;
76903;SDS011;65865;51.698;-0.292;2023-07-29T09:01:49;2.33;;;0.90;;
76903;SDS011;65865;51.698;-0.292;2023-07-29T09:04:15;3.05;;;0.80;;
76903;SDS011;65865;51.698;-0.292;2023-07-29T09:06:42;2.75;;;0.82;;
76903;SDS011;65865;51.698;-0.292;2023-07-29T09:09:08;2.47;;;1.00;;
76903;SDS011;65865;51.698;-0.292;2023-07-29T09:11:34;2.75;;;1.00;;
76903;SDS011;65865;51.698;-0.292;2023-07-29T09:14:00;4.43;;;1.00;;
76903;SDS011;65865;51.698;-0.292;2023-07-29T09:16:26;5.30;;;1.60;;
76903;SDS011;65865;51.698;-0.292;2023-07-29T09:18:53;3.58;;;1.05;;
76903;SDS011;65865;51.698;-0.292;2023-07-29T09:21:23;2.60;;;0.77;;
76903;SDS011;65865;51.698;-0.292;2023-07-29T09:23:51;3.47;;;0.95;;
76903;SDS011;65865;51.698;-0.292;2023-07-29T09:28:53;3.33;;;1.00;;
76903;SDS011;65865;51.698;-0.292;2023-07-29T09:31:20;2.63;;;0.98;;
76903;SDS011;65865;51.698;-0.292;2023-07-29T09:33:46;4.40;;;1.05;;
76903;SDS011;65865;51.698;-0.292;2023-07-29T09:36:12;4.25;;;1.00;;
76903;SDS011;65865;51.698;-0.292;2023-07-29T09:38:38;3.78;;;0.70;;
76903;SDS011;65865;51.698;-0.292;2023-07-29T09:41:04;3.70;;;0.93;;
76903;SDS011;65865;51.698;-0.292;2023-07-29T09:43:34;3.40;;;0.90;;
76903;SDS011;65865;51.698;-0.292;2023-07-29T09:46:01;4.25;;;0.90;;
76903;SDS011;65865;51.698;-0.292;2023-07-29T09:48:27;4.50;;;1.00;;
76903;SDS011;65865;51.698;-0.292;2023-07-29T09:50:56;2.38;;;0.73;;
76903;SDS011;65865;51.698;-0.292;2023-07-29T09:53:22;4.57;;;1.17;;
76903;SDS011;65865;51.698;-0.292;2023-07-29T09:55:48;3.92;;;0.90;;
76903;SDS011;65865;51.698;-0.292;2023-07-29T09:58:18;3.60;;;1.02;;
76903;SDS011;65865;51.698;-0.292;2023-07-29T10:00:44;3.80;;;0.98;;
76903;SDS011;65865;51.698;-0.292;2023-07-29T10:03:11;2.53;;;0.82;;
76903;SDS011;65865;51.698;-0.292;2023-07-29T10:05:37;4.47;;;0.95;;
76903;SDS011;65865;51.698;-0.292;2023-07-29T10:08:04;3.72;;;1.08;;
76903;SDS011;65865;51.698;-0.292;2023-07-29T10:10:30;3.47;;;0.80;;
76903;SDS011;65865;51.698;-0.292;2023-07-29T10:12:56;3.20;;;0.98;;
76903;SDS011;65865;51.698;-0.292;2023-07-29T10:15:22;2.72;;;0.77;;
76903;SDS011;65865;51.698;-0.292;2023-07-29T10:17:49;3.67;;;1.10;;
76903;SDS011;65865;51.698;-0.292;2023-07-29T10:20:15;2.67;;;0.75;;
76903;SDS011;65865;51.698;-0.292;2023-07-29T10:22:42;4.72;;;0.90;;
76903;SDS011;65865;51.698;-0.292;2023-07-29T10:25:18;3.25;;;0.90;;
76903;SDS011;65865;51.698;-0.292;2023-07-29T10:30:13;3.00;;;1.10;;
76903;SDS011;65865;51.698;-0.292;2023-07-29T10:32:43;3.75;;;1.00;;
76903;SDS011;65865;51.698;-0.292;2023-07-29T10:35:10;3.45;;;1.30;;
76903;SDS011;65865;51.698;-0.292;2023-07-29T10:37:36;4.63;;;1.10;;
76903;SDS011;65865;51.698;-0.292;2023-07-29T10:40:05;5.93;;;1.30;;
76903;SDS011;65865;51.698;-0.292;2023-07-29T10:42:31;2.40;;;0.93;;
76903;SDS011;65865;51.698;-0.292;2023-07-29T10:44:57;3.17;;;0.88;;
76903;SDS011;65865;51.698;-0.292;2023-07-29T10:47:27;2.15;;;0.70;;
76903;SDS011;65865;51.698;-0.292;2023-07-29T10:49:55;2.70;;;1.00;;
76903;SDS011;65865;51.698;-0.292;2023-07-29T10:54:59;3.75;;;0.98;;
76903;SDS011;65865;51.698;-0.292;2023-07-29T10:57:33;3.92;;;1.15;;
76903;SDS011;65865;51.698;-0.292;2023-07-29T10:59:59;3.13;;;0.70;;
76903;SDS011;65865;51.698;-0.292;2023-07-29T11:02:30;5.03;;;0.85;;
76903;SDS011;65865;51.698;-0.292;2023-07-29T11:04:56;3.22;;;0.80;;
76903;SDS011;65865;51.698;-0.292;2023-07-29T11:07:23;3.40;;;1.05;;
76903;SDS011;65865;51.698;-0.292;2023-07-29T11:10:02;4.53;;;0.88;;
76903;SDS011;65865;51.698;-0.292;2023-07-29T11:17:41;3.45;;;0.80;;
76903;SDS011;65865;51.698;-0.292;2023-07-29T11:20:08;3.50;;;0.90;;
76903;SDS011;65865;51.698;-0.292;2023-07-29T11:22:34;3.20;;;0.88;;
76903;SDS011;65865;51.698;-0.292;2023-07-29T11:25:00;3.80;;;1.13;;
76903;SDS011;65865;51.698;-0.292;2023-07-29T11:27:26;6.18;;;0.95;;
76903;SDS011;65865;51.698;-0.292;2023-07-29T11:30:03;4.68;;;0.90;;
76903;SDS011;65865;51.698;-0.292;2023-07-29T11:32:30;5.55;;;0.95;;
76903;SDS011;65865;51.698;-0.292;2023-07-29T11:34:57;3.55;;;0.88;;
76903;SDS011;65865;51.698;-0.292;2023-07-29T11:37:23;3.85;;;0.93;;
76903;SDS011;65865;51.698;-0.292;2023-07-29T11:39:49;4.65;;;0.80;;
76903;SDS011;65865;51.698;-0.292;2023-07-29T11:42:16;3.80;;;0.85;;
76903;SDS011;65865;51.698;-0.292;2023-07-29T11:44:42;4.22;;;0.88;;
76903;SDS011;65865;51.698;-0.292;2023-07-29T11:47:08;5.25;;;0.85;;
76903;SDS011;65865;51.698;-0.292;2023-07-29T11:49:35;2.75;;;0.70;;
76903;SDS011;65865;51.698;-0.292;2023-07-29T11:52:04;2.58;;;0.57;;
76903;SDS011;65865;51.698;-0.292;2023-07-29T11:54:31;2.42;;;0.47;;
76903;SDS011;65865;51.698;-0.292;2023-07-29T11:56:57;4.97;;;0.90;;
76903;SDS011;65865;51.698;-0.292;2023-07-29T11:59:23;3.63;;;0.68;;
76903;SDS011;65865;51.698;-0.292;2023-07-29T12:01:49;3.65;;;0.63;;
76903;SDS011;65865;51.698;-0.292;2023-07-29T12:04:15;2.05;;;0.50;;
76903;SDS011;65865;51.698;-0.292;2023-07-29T12:06:42;3.45;;;0.57;;
76903;SDS011;65865;51.698;-0.292;2023-07-29T12:09:08;4.47;;;0.88;;
76903;SDS011;65865;51.698;-0.292;2023-07-29T12:11:34;3.90;;;0.75;;
76903;SDS011;65865;51.698;-0.292;2023-07-29T12:14:00;3.38;;;0.80;;
76903;SDS011;65865;51.698;-0.292;2023-07-29T12:16:26;1.77;;;0.52;;
76903;SDS011;65865;51.698;-0.292;2023-07-29T12:18:59;2.88;;;0.70;;
76903;SDS011;65865;51.698;-0.292;2023-07-29T12:21:25;2.35;;;0.50;;
76903;SDS011;65865;51.698;-0.292;2023-07-29T12:23:52;2.22;;;0.52;;
76903;SDS011;65865;51.698;-0.292;2023-07-29T12:26:18;2.38;;;0.60;;
76903;SDS011;65865;51.698;-0.292;2023-07-29T12:28:47;4.70;;;0.95;;
76903;SDS011;65865;51.698;-0.292;2023-07-29T12:31:13;3.38;;;0.70;;
76903;SDS011;65865;51.698;-0.292;2023-07-29T12:33:39;3.53;;;0.90;;
76903;SDS011;65865;51.698;-0.292;2023-07-29T12:38:33;7.00;;;1.10;;
76903;SDS011;65865;51.698;-0.292;2023-07-29T12:40:59;5.55;;;0.90;;
76903;SDS011;65865;51.698;-0.292;2023-07-29T12:43:25;5.78;;;0.75;;
76903;SDS011;65865;51.698;-0.292;2023-07-29T12:45:51;3.40;;;0.63;;
76903;SDS011;65865;51.698;-0.292;2023-07-29T12:48:17;3.25;;;0.80;;
76903;SDS011;65865;51.698;-0.292;2023-07-29T12:50:43;2.33;;;0.60;;
76903;SDS011;65865;51.698;-0.292;2023-07-29T12:53:09;2.90;;;0.70;;
76903;SDS011;65865;51.698;-0.292;2023-07-29T12:55:36;2.60;;;0.47;;
76903;SDS011;65865;51.698;-0.292;2023-07-29T12:58:02;2.83;;;0.50;;
76903;SDS011;65865;51.698;-0.292;2023-07-29T13:00:28;4.63;;;0.60;;
76903;SDS011;65865;51.698;-0.292;2023-07-29T13:02:54;4.00;;;0.60;;
76903;SDS011;65865;51.698;-0.292;2023-07-29T13:05:20;2.83;;;0.50;;
76903;SDS011;65865;51.698;-0.292;2023-07-29T13:07:46;2.20;;;0.63;;
76903;SDS011;65865;51.698;-0.292;2023-07-29T13:10:12;3.50;;;0.70;;
76903;SDS011;65865;51.698;-0.292;2023-07-29T13:12:39;2.58;;;0.60;;
76903;SDS011;65865;51.698;-0.292;2023-07-29T13:15:05;5.93;;;0.70;;
76903;SDS011;65865;51.698;-0.292;2023-07-29T13:17:31;3.17;;;0.70;;
76903;SDS011;65865;51.698;-0.292;2023-07-29T13:19:58;2.30;;;0.45;;
76903;SDS011;65865;51.698;-0.292;2023-07-29T13:22:24;1.98;;;0.50;;
76903;SDS011;65865;51.698;-0.292;2023-07-29T13:24:50;2.53;;;0.40;;
76903;SDS011;65865;51.698;-0.292;2023-07-29T13:27:16;3.72;;;0.50;;
76903;SDS011;65865;51.698;-0.292;2023-07-29T13:29:42;2.75;;;0.50;;
76903;SDS011;65865;51.698;-0.292;2023-07-29T13:32:08;2.97;;;0.57;;
76903;SDS011;65865;51.698;-0.292;2023-07-29T13:34:35;1.83;;;0.30;;
76903;SDS011;65865;51.698;-0.292;2023-07-29T13:37:01;1.75;;;0.30;;
76903;SDS011;65865;51.698;-0.292;2023-07-29T13:39:27;3.13;;;0.40;;
76903;SDS011;65865;51.698;-0.292;2023-07-29T13:41:53;2.38;;;0.57;;
76903;SDS011;65865;51.698;-0.292;2023-07-29T13:44:19;2.05;;;0.30;;
76903;SDS011;65865;51.698;-0.292;2023-07-29T13:46:45;3.75;;;0.60;;
76903;SDS011;65865;51.698;-0.292;2023-07-29T13:49:11;2.05;;;0.40;;
76903;SDS011;65865;51.698;-0.292;2023-07-29T13:51:37;2.70;;;0.43;;
76903;SDS011;65865;51.698;-0.292;2023-07-29T13:54:03;1.88;;;0.40;;
76903;SDS011;65865;51.698;-0.292;2023-07-29T13:56:29;1.90;;;0.30;;
76903;SDS011;65865;51.698;-0.292;2023-07-29T13:58:55;2.33;;;0.40;;
76903;SDS011;65865;51.698;-0.292;2023-07-29T14:01:21;2.60;;;0.50;;
76903;SDS011;65865;51.698;-0.292;2023-07-29T14:03:47;2.78;;;0.40;;
76903;SDS011;65865;51.698;-0.292;2023-07-29T14:06:13;3.72;;;0.68;;
76903;SDS011;65865;51.698;-0.292;2023-07-29T14:08:39;2.95;;;0.60;;
76903;SDS011;65865;51.698;-0.292;2023-07-29T14:11:06;4.95;;;0.40;;
76903;SDS011;65865;51.698;-0.292;2023-07-29T14:13:33;3.42;;;0.70;;
76903;SDS011;65865;51.698;-0.292;2023-07-29T14:16:02;1.90;;;0.43;;
76903;SDS011;65865;51.698;-0.292;2023-07-29T14:18:28;2.83;;;0.70;;
76903;SDS011;65865;51.698;-0.292;2023-07-29T14:20:54;4.57;;;1.08;;
76903;SDS011;65865;51.698;-0.292;2023-07-29T14:23:20;10.15;;;3.47;;
76903;SDS011;65865;51.698;-0.292;2023-07-29T14:25:46;15.27;;;5.00;;
76903;SDS011;65865;51.698;-0.292;2023-07-29T14:28:12;10.10;;;2.97;;
76903;SDS011;65865;51.698;-0.292;2023-07-29T14:30:38;11.88;;;4.47;;
76903;SDS011;65865;51.698;-0.292;2023-07-29T14:33:06;9.60;;;2.28;;
76903;SDS011;65865;51.698;-0.292;2023-07-29T14:35:32;6.75;;;2.28;;
76903;SDS011;65865;51.698;-0.292;2023-07-29T14:37:58;6.03;;;1.73;;
76903;SDS011;65865;51.698;-0.292;2023-07-29T14:40:24;7.07;;;1.77;;
76903;SDS011;65865;51.698;-0.292;2023-07-29T14:42:50;14.05;;;4.22;;
76903;SDS011;65865;51.698;-0.292;2023-07-29T14:45:16;18.98;;;5.80;;
76903;SDS011;65865;51.698;-0.292;2023-07-29T14:47:42;10.65;;;3.22;;
76903;SDS011;65865;51.698;-0.292;2023-07-29T14:50:08;15.73;;;4.20;;
76903;SDS011;65865;51.698;-0.292;2023-07-29T14:52:34;11.60;;;3.30;;
76903;SDS011;65865;51.698;-0.292;2023-07-29T14:55:00;10.07;;;3.30;;
76903;SDS011;65865;51.698;-0.292;2023-07-29T14:57:26;9.00;;;2.85;;
76903;SDS011;65865;51.698;-0.292;2023-07-29T14:59:52;6.93;;;1.80;;